Lethbridge County Airport
CYQL : now visible

Airfield :











YOU CAN JOIN US ON...

 
LOGIN :

Register | Disclaimer

   EN    FR    IT 

 









Legend :    VFR   Marginal VFR   IFR   Intensive IFR   Very Intensive IFR
Visi :
Ceiling :
>= 8 km
>= 3000ft
5 to 8 km
1000 to 3000 ft
1500m to 5 km
500 to 1000 ft
800 to 1500m
200 to 500 ft
< 800m
< 200 ft
Symbols :   Thunderstorms  Fog  Heavy snow  Heavy precipitations  Wind > 20 kt






- Airport Elevation : 3047 ft
- IATA code : YQL


CYQL - Lethbridge County

CURRENT METAR :
  • 090900Z AUTO 23013KT 9SM OVC085 M07/M11 A2997 RMK SLP211

EXPIRED METARs :
  • 090800Z AUTO 28009KT 9SM OVC085 M08/M12 A2998 RMK SLP218
  • 090700Z AUTO 26008KT 9SM OVC085 M09/M12 A2997 RMK SLP216

TAF TAF CYQL
Valid from the 09 at 06:00 until the 09 at 18:00 UTC


090538Z 0906/0918 24015KT P6SM BKN080 OVC200
FM091600 26012KT P6SM BKN040 OVC080
TEMPO 0916/0918 3SM -SN SCT020 OVC040 RMK FCST BASED ON AUTO OBS. NXT FCST BY 091200Z



MET'MAP, your aeronautical weather chart ! - Copyright ORBIFLY December 2007 - Disclaimer

ORBIFLY MET'MAP TEAM :

Programming & Development : Alexandra Zaïnal
Concept & original design : Baudouin d'Aumeries
Assistance for programming : Marc-Olivier Méhu
Technical & hardware support : Manuel Goepfert

Contact : metmap@orbifly.com




SOURCES & CREDITS :

   NOAA       Earth
Advisory